createdAt,value
2023-01-20T00:00:32.774Z,1004.65
2023-01-20T00:01:32.697Z,1004.65
2023-01-20T00:02:32.705Z,1004.66
2023-01-20T00:03:32.722Z,1004.68
2023-01-20T00:04:32.668Z,1004.64
2023-01-20T00:05:32.650Z,1004.64
2023-01-20T00:06:32.640Z,1004.67
2023-01-20T00:07:32.633Z,1004.74
2023-01-20T00:08:32.643Z,1004.74
2023-01-20T00:09:32.607Z,1004.74
2023-01-20T00:10:32.612Z,1004.74
2023-01-20T00:11:32.589Z,1004.73
2023-01-20T00:12:32.592Z,1004.75
2023-01-20T00:13:32.720Z,1004.79
2023-01-20T00:14:32.552Z,1004.77
2023-01-20T00:15:32.542Z,1004.78
2023-01-20T00:16:32.547Z,1004.86
2023-01-20T00:17:32.524Z,1004.80
2023-01-20T00:18:32.533Z,1004.85
2023-01-20T00:19:32.505Z,1004.84
2023-01-20T00:20:32.492Z,1004.85
2023-01-20T00:21:32.473Z,1004.87
2023-01-20T00:22:32.471Z,1004.86
2023-01-20T00:23:32.480Z,1004.88
2023-01-20T00:24:32.457Z,1004.89
2023-01-20T00:25:32.445Z,1004.90
2023-01-20T00:26:32.450Z,1004.87
2023-01-20T00:27:32.411Z,1004.89
2023-01-20T00:28:32.503Z,1004.90
2023-01-20T00:29:32.391Z,1004.93
2023-01-20T00:30:32.472Z,1004.93
2023-01-20T00:31:32.422Z,1004.92
2023-01-20T00:32:32.363Z,1004.95
2023-01-20T00:33:32.361Z,1004.93
2023-01-20T00:34:32.353Z,1004.93
2023-01-20T00:35:32.354Z,1004.90
2023-01-20T00:36:32.309Z,1004.94
2023-01-20T00:37:32.322Z,1004.96
2023-01-20T00:38:32.322Z,1004.99
2023-01-20T00:39:32.292Z,1005.03
2023-01-20T00:40:32.273Z,1005.03
2023-01-20T00:41:32.282Z,1005.00
2023-01-20T00:42:32.265Z,1005.03
2023-01-20T00:43:32.260Z,1005.04
2023-01-20T00:44:32.244Z,1005.00
2023-01-20T00:45:32.219Z,1005.06
2023-01-20T00:46:32.324Z,1005.02
2023-01-20T00:47:32.192Z,1005.06
2023-01-20T00:48:32.224Z,1005.08
2023-01-20T00:49:32.176Z,1005.06
2023-01-20T00:50:32.183Z,1005.09
2023-01-20T00:51:32.158Z,1005.12
2023-01-20T00:52:32.153Z,1005.12
2023-01-20T00:53:32.147Z,1005.14
2023-01-20T00:54:32.134Z,1005.17
2023-01-20T00:55:32.145Z,1005.18
2023-01-20T00:56:32.122Z,1005.23
2023-01-20T00:57:32.095Z,1005.22
2023-01-20T00:58:32.134Z,1005.22
2023-01-20T00:59:32.075Z,1005.20
2023-01-20T01:00:32.085Z,1005.20
2023-01-20T01:01:32.083Z,1005.18
2023-01-20T01:02:32.113Z,1005.20
2023-01-20T01:03:32.052Z,1005.23
2023-01-20T01:04:32.041Z,1005.25
2023-01-20T01:05:32.024Z,1005.25
2023-01-20T01:06:32.005Z,1005.30
2023-01-20T01:07:31.993Z,1005.29
2023-01-20T01:08:32.006Z,1005.31
2023-01-20T01:09:31.965Z,1005.33
2023-01-20T01:10:31.978Z,1005.38
2023-01-20T01:11:31.957Z,1005.40
2023-01-20T01:12:31.941Z,1005.39
2023-01-20T01:13:31.953Z,1005.38
2023-01-20T01:14:31.932Z,1005.41
2023-01-20T01:15:31.908Z,1005.45
2023-01-20T01:16:31.973Z,1005.41
2023-01-20T01:17:31.883Z,1005.46
2023-01-20T01:18:31.883Z,1005.44
2023-01-20T01:19:31.863Z,1005.45
2023-01-20T01:20:31.859Z,1005.48
2023-01-20T01:21:31.863Z,1005.52
2023-01-20T01:22:31.836Z,1005.50
2023-01-20T01:23:31.834Z,1005.46
2023-01-20T01:24:31.821Z,1005.49
2023-01-20T01:25:31.803Z,1005.50
2023-01-20T01:26:31.795Z,1005.50
2023-01-20T01:27:31.781Z,1005.53
2023-01-20T01:28:31.796Z,1005.52
2023-01-20T01:29:31.792Z,1005.51
2023-01-20T01:30:31.771Z,1005.49
2023-01-20T01:31:31.785Z,1005.51
2023-01-20T01:32:31.725Z,1005.55
2023-01-20T01:33:31.746Z,1005.57
2023-01-20T01:34:31.723Z,1005.61
2023-01-20T01:35:31.708Z,1005.61
2023-01-20T01:36:31.705Z,1005.58
2023-01-20T01:37:31.686Z,1005.62
2023-01-20T01:38:31.677Z,1005.62
2023-01-20T01:39:31.651Z,1005.61
2023-01-20T01:40:31.636Z,1005.60
2023-01-20T01:41:31.633Z,1005.62
2023-01-20T01:42:31.617Z,1005.66
2023-01-20T01:43:31.655Z,1005.60
2023-01-20T01:44:31.596Z,1005.61
2023-01-20T01:45:31.624Z,1005.64
2023-01-20T01:46:31.577Z,1005.63
2023-01-20T01:47:31.581Z,1005.62
2023-01-20T01:48:31.562Z,1005.66
2023-01-20T01:49:31.553Z,1005.65
2023-01-20T01:50:31.563Z,1005.68
2023-01-20T01:51:31.542Z,1005.72
2023-01-20T01:52:31.514Z,1005.71
2023-01-20T01:53:31.515Z,1005.70
2023-01-20T01:54:31.499Z,1005.72
2023-01-20T01:55:31.495Z,1005.75
2023-01-20T01:56:31.474Z,1005.79
2023-01-20T01:57:31.467Z,1005.77
2023-01-20T01:58:31.492Z,1005.75
2023-01-20T01:59:31.445Z,1005.79
2023-01-20T02:00:31.480Z,1005.80
2023-01-20T02:01:31.460Z,1005.79
2023-01-20T02:02:31.464Z,1005.78
2023-01-20T02:03:31.413Z,1005.80
2023-01-20T02:04:31.385Z,1005.81
2023-01-20T02:05:31.389Z,1005.83
2023-01-20T02:06:31.369Z,1005.84
2023-01-20T02:07:31.367Z,1005.81
2023-01-20T02:08:31.384Z,1005.83
2023-01-20T02:09:31.345Z,1005.82
2023-01-20T02:10:31.323Z,1005.75
2023-01-20T02:11:31.330Z,1005.77
2023-01-20T02:12:31.295Z,1005.78
2023-01-20T02:13:31.307Z,1005.84
2023-01-20T02:14:31.283Z,1005.85
2023-01-20T02:15:31.265Z,1005.82
2023-01-20T02:16:31.342Z,1005.86
2023-01-20T02:17:31.258Z,1005.83
2023-01-20T02:18:31.258Z,1005.88
2023-01-20T02:19:31.233Z,1005.91
2023-01-20T02:20:31.214Z,1005.91
2023-01-20T02:21:31.204Z,1005.94
2023-01-20T02:22:31.203Z,1005.91
2023-01-20T02:23:31.197Z,1005.92
2023-01-20T02:24:31.285Z,1005.93
2023-01-20T02:25:31.164Z,1005.95
2023-01-20T02:26:31.156Z,1005.95
2023-01-20T02:27:31.138Z,1005.93
2023-01-20T02:28:31.143Z,1005.95
2023-01-20T02:29:31.114Z,1005.95
2023-01-20T02:30:31.139Z,1006.00
2023-01-20T02:31:31.138Z,1006.01
2023-01-20T02:32:31.097Z,1005.96
2023-01-20T02:33:31.096Z,1005.99
2023-01-20T02:34:31.074Z,1006.05
2023-01-20T02:35:31.076Z,1006.04
2023-01-20T02:36:31.053Z,1006.04
2023-01-20T02:37:31.046Z,1006.04
2023-01-20T02:38:31.050Z,1006.03
2023-01-20T02:39:31.014Z,1006.01
2023-01-20T02:40:31.019Z,1006.05
2023-01-20T02:41:31.003Z,1006.05
2023-01-20T02:42:30.983Z,1006.05
2023-01-20T02:43:30.996Z,1006.08
2023-01-20T02:44:30.966Z,1006.11
2023-01-20T02:45:31.017Z,1006.10
2023-01-20T02:46:30.955Z,1006.11
2023-01-20T02:47:30.934Z,1006.11
2023-01-20T02:48:30.962Z,1006.10
2023-01-20T02:49:30.915Z,1006.13
2023-01-20T02:50:30.905Z,1006.14
2023-01-20T02:51:30.896Z,1006.16
2023-01-20T02:52:30.882Z,1006.13
2023-01-20T02:53:30.891Z,1006.16
2023-01-20T02:54:30.857Z,1006.16
2023-01-20T02:55:30.875Z,1006.20
2023-01-20T02:56:30.856Z,1006.22
2023-01-20T02:57:30.856Z,1006.20
2023-01-20T02:58:30.830Z,1006.19
2023-01-20T02:59:30.804Z,1006.22
2023-01-20T03:00:30.794Z,1006.21
2023-01-20T03:01:30.847Z,1006.18
2023-01-20T03:02:30.786Z,1006.21
2023-01-20T03:03:30.795Z,1006.20
2023-01-20T03:04:30.758Z,1006.24
2023-01-20T03:05:30.772Z,1006.27
2023-01-20T03:06:30.724Z,1006.30
2023-01-20T03:07:30.721Z,1006.29
2023-01-20T03:08:30.729Z,1006.33
2023-01-20T03:09:30.694Z,1006.28
2023-01-20T03:10:30.695Z,1006.29
2023-01-20T03:11:30.686Z,1006.27
2023-01-20T03:12:30.665Z,1006.32
2023-01-20T03:13:30.673Z,1006.30
2023-01-20T03:14:30.645Z,1006.33
2023-01-20T03:15:30.645Z,1006.31
2023-01-20T03:16:30.641Z,1006.33
2023-01-20T03:17:30.624Z,1006.34
2023-01-20T03:18:30.608Z,1006.32
2023-01-20T03:19:30.607Z,1006.33
2023-01-20T03:20:30.587Z,1006.34
2023-01-20T03:21:30.575Z,1006.34
2023-01-20T03:22:30.567Z,1006.31
2023-01-20T03:23:30.575Z,1006.32
2023-01-20T03:24:30.559Z,1006.33
2023-01-20T03:25:30.555Z,1006.36
2023-01-20T03:26:30.515Z,1006.41
2023-01-20T03:27:30.503Z,1006.40
2023-01-20T03:28:30.530Z,1006.37
2023-01-20T03:29:30.494Z,1006.39
2023-01-20T03:30:30.561Z,1006.42
2023-01-20T03:31:30.656Z,1006.45
2023-01-20T03:32:30.458Z,1006.45
2023-01-20T03:33:30.524Z,1006.46
2023-01-20T03:34:30.435Z,1006.47
2023-01-20T03:35:30.447Z,1006.50
2023-01-20T03:36:30.404Z,1006.51
2023-01-20T03:37:30.404Z,1006.47
2023-01-20T03:38:30.406Z,1006.49
2023-01-20T03:39:30.376Z,1006.43
2023-01-20T03:40:30.367Z,1006.41
2023-01-20T03:41:30.365Z,1006.45
2023-01-20T03:42:30.356Z,1006.44
2023-01-20T03:43:30.384Z,1006.43
2023-01-20T03:44:30.356Z,1006.38
2023-01-20T03:45:30.325Z,1006.38
2023-01-20T03:46:30.315Z,1006.42
2023-01-20T03:47:30.318Z,1006.50
2023-01-20T03:48:30.320Z,1006.46
2023-01-20T03:49:30.296Z,1006.48
2023-01-20T03:50:30.278Z,1006.48
2023-01-20T03:51:30.267Z,1006.48
2023-01-20T03:52:47.078Z,1006.46
2023-01-20T03:53:31.256Z,1006.47
2023-01-20T03:54:30.237Z,1006.51
2023-01-20T03:55:30.216Z,1006.49
2023-01-20T03:56:30.218Z,1006.52
2023-01-20T03:57:30.207Z,1006.53
2023-01-20T03:58:30.234Z,1006.54
2023-01-20T03:59:30.186Z,1006.58
2023-01-20T04:00:30.170Z,1006.63
2023-01-20T04:01:30.327Z,1006.61
2023-01-20T04:02:30.201Z,1006.63
2023-01-20T04:03:30.263Z,1006.64
2023-01-20T04:04:30.129Z,1006.65
2023-01-20T04:05:30.113Z,1006.67
2023-01-20T04:06:30.098Z,1006.61
2023-01-20T04:07:30.096Z,1006.60
2023-01-20T04:08:30.089Z,1006.59
2023-01-20T04:09:30.065Z,1006.62
2023-01-20T04:10:30.063Z,1006.61
2023-01-20T04:11:30.065Z,1006.66
2023-01-20T04:12:30.046Z,1006.64
2023-01-20T04:13:30.044Z,1006.62
2023-01-20T04:14:30.021Z,1006.61
2023-01-20T04:15:30.649Z,1006.60
2023-01-20T04:16:29.986Z,1006.63
2023-01-20T04:17:29.987Z,1006.63
2023-01-20T04:18:30.012Z,1006.62
2023-01-20T04:19:29.978Z,1006.64
2023-01-20T04:20:29.967Z,1006.66
2023-01-20T04:21:29.958Z,1006.62
2023-01-20T04:22:29.946Z,1006.65
2023-01-20T04:23:29.971Z,1006.64
2023-01-20T04:24:29.927Z,1006.63
2023-01-20T04:25:29.895Z,1006.68
2023-01-20T04:26:29.926Z,1006.69
2023-01-20T04:27:29.877Z,1006.72
2023-01-20T04:28:29.865Z,1006.72
2023-01-20T04:29:29.858Z,1006.81
2023-01-20T04:30:29.880Z,1006.77
2023-01-20T04:31:31.397Z,1006.78
2023-01-20T04:32:29.817Z,1006.75
2023-01-20T04:33:29.826Z,1006.78
2023-01-20T04:34:29.817Z,1006.79
2023-01-20T04:35:29.785Z,1006.77
2023-01-20T04:36:29.776Z,1006.81
2023-01-20T04:37:29.765Z,1006.83
2023-01-20T04:38:29.775Z,1006.81
2023-01-20T04:39:29.739Z,1006.79
2023-01-20T04:40:29.740Z,1006.81
2023-01-20T04:41:29.718Z,1006.83
2023-01-20T04:42:29.708Z,1006.81
2023-01-20T04:43:29.716Z,1006.81
2023-01-20T04:44:29.709Z,1006.82
2023-01-20T04:45:29.685Z,1006.82
2023-01-20T04:46:29.737Z,1006.79
2023-01-20T04:47:29.676Z,1006.82
2023-01-20T04:48:29.658Z,1006.89
2023-01-20T04:49:29.675Z,1006.83
2023-01-20T04:50:29.634Z,1006.87
2023-01-20T04:51:29.611Z,1006.79
2023-01-20T04:52:29.613Z,1006.87
2023-01-20T04:53:29.618Z,1006.84
2023-01-20T04:54:29.594Z,1006.87
2023-01-20T04:55:29.579Z,1006.87
2023-01-20T04:56:29.568Z,1006.83
2023-01-20T04:57:29.567Z,1006.93
2023-01-20T04:58:29.559Z,1006.93
2023-01-20T04:59:29.581Z,1006.97
2023-01-20T05:00:29.517Z,1006.88
2023-01-20T05:01:29.569Z,1006.93
2023-01-20T05:02:29.520Z,1007.00
2023-01-20T05:03:29.510Z,1006.96
2023-01-20T05:04:29.486Z,1006.97
2023-01-20T05:05:29.468Z,1006.91
2023-01-20T05:06:29.457Z,1007.00
2023-01-20T05:07:29.459Z,1006.97
2023-01-20T05:08:29.450Z,1006.99
2023-01-20T05:09:29.423Z,1006.98
2023-01-20T05:10:29.447Z,1006.97
2023-01-20T05:11:29.410Z,1006.96
2023-01-20T05:12:29.398Z,1007.00
2023-01-20T05:13:29.390Z,1007.02
2023-01-20T05:14:29.378Z,1007.03
2023-01-20T05:15:29.358Z,1007.02
2023-01-20T05:16:29.363Z,1007.02
2023-01-20T05:17:29.337Z,1007.03
2023-01-20T05:18:29.359Z,1007.02
2023-01-20T05:19:29.317Z,1007.03
2023-01-20T05:20:29.317Z,1007.00
2023-01-20T05:21:29.297Z,1006.99
2023-01-20T05:22:29.288Z,1007.02
2023-01-20T05:23:29.315Z,1006.99
2023-01-20T05:24:29.266Z,1007.01
2023-01-20T05:25:29.266Z,1007.05
2023-01-20T05:26:29.268Z,1006.98
2023-01-20T05:27:29.227Z,1007.06
2023-01-20T05:28:29.267Z,1007.06
2023-01-20T05:29:29.218Z,1007.06
2023-01-20T05:30:29.226Z,1007.09
2023-01-20T05:31:29.345Z,1007.11
2023-01-20T05:32:29.189Z,1007.09
2023-01-20T05:33:29.198Z,1007.08
2023-01-20T05:34:29.189Z,1007.13
2023-01-20T05:35:29.147Z,1007.10
2023-01-20T05:36:29.143Z,1007.16
2023-01-20T05:37:29.128Z,1007.11
2023-01-20T05:38:29.140Z,1007.14
2023-01-20T05:39:29.095Z,1007.13
2023-01-20T05:40:29.117Z,1007.16
2023-01-20T05:41:29.101Z,1007.19
2023-01-20T05:42:29.079Z,1007.19
2023-01-20T05:43:29.081Z,1007.21
2023-01-20T05:44:29.060Z,1007.24
2023-01-20T05:45:29.038Z,1007.22
2023-01-20T05:46:29.068Z,1007.24
2023-01-20T05:47:29.028Z,1007.23
2023-01-20T05:48:29.026Z,1007.22
2023-01-20T05:49:29.000Z,1007.27
2023-01-20T05:50:29.036Z,1007.25
2023-01-20T05:51:29.008Z,1007.29
2023-01-20T05:52:28.981Z,1007.27
2023-01-20T05:53:28.997Z,1007.33
2023-01-20T05:54:28.957Z,1007.31
2023-01-20T05:55:28.937Z,1007.32
2023-01-20T05:56:28.928Z,1007.32
2023-01-20T05:57:28.923Z,1007.33
2023-01-20T05:58:28.935Z,1007.34
2023-01-20T05:59:28.892Z,1007.34
2023-01-20T06:00:28.912Z,1007.31
2023-01-20T06:01:28.888Z,1007.34
2023-01-20T06:02:28.979Z,1007.39
2023-01-20T06:03:28.887Z,1007.38
2023-01-20T06:04:28.851Z,1007.41
2023-01-20T06:05:28.841Z,1007.36
2023-01-20T06:06:28.838Z,1007.44
2023-01-20T06:07:28.813Z,1007.43
2023-01-20T06:08:28.822Z,1007.43
2023-01-20T06:09:28.789Z,1007.44
2023-01-20T06:10:28.788Z,1007.51
2023-01-20T06:11:28.777Z,1007.46
2023-01-20T06:12:28.761Z,1007.47
2023-01-20T06:13:28.814Z,1007.50
2023-01-20T06:14:28.750Z,1007.45
2023-01-20T06:15:28.736Z,1007.47
2023-01-20T06:16:28.801Z,1007.49
2023-01-20T06:17:28.711Z,1007.47
2023-01-20T06:18:28.765Z,1007.48
2023-01-20T06:19:28.717Z,1007.47
2023-01-20T06:20:28.686Z,1007.47
2023-01-20T06:21:28.658Z,1007.49
2023-01-20T06:22:28.658Z,1007.49
2023-01-20T06:23:28.653Z,1007.48
2023-01-20T06:24:28.637Z,1007.50
2023-01-20T06:25:28.619Z,1007.51
2023-01-20T06:26:28.631Z,1007.55
2023-01-20T06:27:28.599Z,1007.54
2023-01-20T06:28:28.622Z,1007.58
2023-01-20T06:29:28.579Z,1007.59
2023-01-20T06:30:28.570Z,1007.59
2023-01-20T06:31:28.690Z,1007.60
2023-01-20T06:32:28.559Z,1007.61
2023-01-20T06:33:28.580Z,1007.68
2023-01-20T06:34:28.529Z,1007.67
2023-01-20T06:35:28.520Z,1007.66
2023-01-20T06:36:28.515Z,1007.68
2023-01-20T06:37:28.512Z,1007.71
2023-01-20T06:38:28.506Z,1007.67
2023-01-20T06:39:28.475Z,1007.72
2023-01-20T06:40:28.461Z,1007.71
2023-01-20T06:41:28.449Z,1007.67
2023-01-20T06:42:28.446Z,1007.68
2023-01-20T06:43:28.463Z,1007.73
2023-01-20T06:44:28.426Z,1007.71
2023-01-20T06:45:28.407Z,1007.69
2023-01-20T06:46:28.437Z,1007.70
2023-01-20T06:47:28.394Z,1007.72
2023-01-20T06:48:28.389Z,1007.73
2023-01-20T06:49:28.369Z,1007.71
2023-01-20T06:50:28.362Z,1007.78
2023-01-20T06:51:28.345Z,1007.80
2023-01-20T06:52:28.376Z,1007.79
2023-01-20T06:53:28.359Z,1007.83
2023-01-20T06:54:28.322Z,1007.82
2023-01-20T06:55:28.321Z,1007.82
2023-01-20T06:56:28.299Z,1007.90
2023-01-20T06:57:28.282Z,1007.90
2023-01-20T06:58:28.313Z,1007.92
2023-01-20T06:59:28.276Z,1007.94
2023-01-20T07:00:28.380Z,1007.94
2023-01-20T07:01:28.529Z,1007.95
2023-01-20T07:02:28.242Z,1007.91
2023-01-20T07:03:28.231Z,1007.92
2023-01-20T07:04:28.211Z,1007.92
2023-01-20T07:05:28.205Z,1007.92
2023-01-20T07:06:28.179Z,1007.93
2023-01-20T07:07:28.181Z,1007.95
2023-01-20T07:08:28.195Z,1007.95
2023-01-20T07:09:28.200Z,1007.98
2023-01-20T07:10:28.148Z,1007.96
2023-01-20T07:11:28.141Z,1008.03
2023-01-20T07:12:28.130Z,1008.00
2023-01-20T07:13:28.144Z,1008.02
2023-01-20T07:14:28.110Z,1008.03
2023-01-20T07:15:28.091Z,1008.06
2023-01-20T07:16:28.100Z,1008.04
2023-01-20T07:17:28.087Z,1008.10
2023-01-20T07:18:28.081Z,1008.08
2023-01-20T07:19:28.052Z,1008.09
2023-01-20T07:20:28.040Z,1008.13
2023-01-20T07:21:28.032Z,1008.13
2023-01-20T07:22:28.034Z,1008.13
2023-01-20T07:23:28.036Z,1008.15
2023-01-20T07:24:27.995Z,1008.13
2023-01-20T07:25:27.991Z,1008.15
2023-01-20T07:26:27.989Z,1008.18
2023-01-20T07:27:27.984Z,1008.20
2023-01-20T07:28:27.958Z,1008.20
2023-01-20T07:29:27.964Z,1008.21
2023-01-20T07:30:27.973Z,1008.21
2023-01-20T07:31:28.105Z,1008.23
2023-01-20T07:32:27.920Z,1008.22
2023-01-20T07:33:27.911Z,1008.25
2023-01-20T07:34:27.906Z,1008.26
2023-01-20T07:35:27.890Z,1008.28
2023-01-20T07:36:27.880Z,1008.26
2023-01-20T07:37:27.922Z,1008.27
2023-01-20T07:38:27.861Z,1008.28
2023-01-20T07:39:27.832Z,1008.29
2023-01-20T07:40:27.851Z,1008.32
2023-01-20T07:41:27.844Z,1008.36
2023-01-20T07:42:27.810Z,1008.37
2023-01-20T07:43:27.806Z,1008.38
2023-01-20T07:44:27.794Z,1008.35
2023-01-20T07:45:27.794Z,1008.40
2023-01-20T07:46:27.772Z,1008.42
2023-01-20T07:47:27.772Z,1008.42
2023-01-20T07:48:27.768Z,1008.40
2023-01-20T07:49:27.732Z,1008.39
2023-01-20T07:50:27.779Z,1008.40
2023-01-20T07:51:27.739Z,1008.40
2023-01-20T07:52:27.703Z,1008.40
2023-01-20T07:53:27.850Z,1008.43
2023-01-20T07:54:27.684Z,1008.42
2023-01-20T07:55:27.675Z,1008.47
2023-01-20T07:56:27.666Z,1008.48
2023-01-20T07:57:27.665Z,1008.46
2023-01-20T07:58:27.655Z,1008.48
2023-01-20T07:59:27.629Z,1008.48
2023-01-20T08:00:27.671Z,1008.51
2023-01-20T08:01:27.749Z,1008.52
2023-01-20T08:02:27.602Z,1008.55
2023-01-20T08:03:27.602Z,1008.57
2023-01-20T08:04:27.629Z,1008.53
2023-01-20T08:05:27.561Z,1008.50
2023-01-20T08:06:27.585Z,1008.53
2023-01-20T08:07:27.544Z,1008.55
2023-01-20T08:08:27.551Z,1008.56
2023-01-20T08:09:27.523Z,1008.59
2023-01-20T08:10:27.557Z,1008.62
2023-01-20T08:11:27.535Z,1008.66
2023-01-20T08:12:27.492Z,1008.68
2023-01-20T08:13:27.485Z,1008.68
2023-01-20T08:14:27.490Z,1008.69
2023-01-20T08:15:27.454Z,1008.74
2023-01-20T08:16:27.478Z,1008.72
2023-01-20T08:17:27.459Z,1008.78
2023-01-20T08:18:27.444Z,1008.74
2023-01-20T08:19:27.457Z,1008.75
2023-01-20T08:20:27.437Z,1008.77
2023-01-20T08:21:27.412Z,1008.77
2023-01-20T08:22:27.431Z,1008.78
2023-01-20T08:23:27.467Z,1008.80
2023-01-20T08:24:27.401Z,1008.85
2023-01-20T08:25:27.361Z,1008.87
2023-01-20T08:26:27.379Z,1008.86
2023-01-20T08:27:27.379Z,1008.89
2023-01-20T08:28:28.216Z,1008.91
2023-01-20T08:29:27.309Z,1008.96
2023-01-20T08:30:27.458Z,1008.93
2023-01-20T08:31:27.411Z,1008.93
2023-01-20T08:32:27.286Z,1008.96
2023-01-20T08:33:27.275Z,1008.96
2023-01-20T08:34:27.253Z,1008.98
2023-01-20T08:35:27.248Z,1008.99
2023-01-20T08:36:27.259Z,1009.05
2023-01-20T08:37:27.225Z,1008.99
2023-01-20T08:38:27.227Z,1008.99
2023-01-20T08:39:27.217Z,1008.97
2023-01-20T08:40:27.221Z,1008.99
2023-01-20T08:41:27.184Z,1008.95
2023-01-20T08:42:27.181Z,1009.02
2023-01-20T08:43:27.173Z,1008.98
2023-01-20T08:44:27.153Z,1008.99
2023-01-20T08:45:27.171Z,1008.96
2023-01-20T08:46:27.249Z,1008.94
2023-01-20T08:47:27.154Z,1008.92
2023-01-20T08:48:27.173Z,1008.92
2023-01-20T08:49:27.104Z,1008.96
2023-01-20T08:50:27.094Z,1009.01
2023-01-20T08:51:27.110Z,1009.00
2023-01-20T08:52:27.065Z,1009.01
2023-01-20T08:53:27.076Z,1009.01
2023-01-20T08:54:27.055Z,1009.02
2023-01-20T08:55:27.036Z,1009.00
2023-01-20T08:56:27.033Z,1008.96
2023-01-20T08:57:27.005Z,1008.92
2023-01-20T08:58:27.024Z,1008.99
2023-01-20T08:59:26.997Z,1008.95
2023-01-20T09:00:27.003Z,1008.94
2023-01-20T09:01:27.024Z,1008.88
2023-01-20T09:02:27.027Z,1008.89
2023-01-20T09:03:26.960Z,1008.91
2023-01-20T09:04:26.952Z,1008.91
2023-01-20T09:05:26.924Z,1008.94
2023-01-20T09:06:26.978Z,1008.96
2023-01-20T09:07:26.931Z,1008.97
2023-01-20T09:08:26.937Z,1008.93
2023-01-20T09:09:26.875Z,1008.97
2023-01-20T09:10:26.900Z,1008.99
2023-01-20T09:11:26.890Z,1009.01
2023-01-20T09:12:26.848Z,1009.03
2023-01-20T09:13:26.858Z,1009.02
2023-01-20T09:14:26.835Z,1008.96
2023-01-20T09:15:26.816Z,1008.98
2023-01-20T09:16:26.949Z,1009.00
2023-01-20T09:17:26.834Z,1008.99
2023-01-20T09:18:26.811Z,1009.00
2023-01-20T09:19:26.794Z,1008.97
2023-01-20T09:20:26.776Z,1008.98
2023-01-20T09:21:26.754Z,1009.03
2023-01-20T09:22:26.787Z,1009.02
2023-01-20T09:23:26.777Z,1009.03
2023-01-20T09:24:26.718Z,1009.03
2023-01-20T09:25:26.707Z,1009.02
2023-01-20T09:26:35.936Z,1008.98
2023-01-20T09:27:27.676Z,1009.00
2023-01-20T09:28:27.335Z,1008.95
2023-01-20T09:29:26.664Z,1008.98
2023-01-20T09:30:26.669Z,1008.98
2023-01-20T09:31:26.716Z,1008.98
2023-01-20T09:32:26.637Z,1008.98
2023-01-20T09:33:26.628Z,1008.95
2023-01-20T09:34:26.615Z,1008.98
2023-01-20T09:35:26.601Z,1008.95
2023-01-20T09:36:28.474Z,1008.98
2023-01-20T09:37:26.589Z,1009.01
2023-01-20T09:38:26.586Z,1009.05
2023-01-20T09:39:26.547Z,1009.05
2023-01-20T09:40:26.560Z,1009.02
2023-01-20T09:41:26.531Z,1009.03
2023-01-20T09:42:26.517Z,1009.04
2023-01-20T09:43:26.569Z,1009.00
2023-01-20T09:44:26.502Z,1009.01
2023-01-20T09:45:26.495Z,1009.03
2023-01-20T09:46:26.537Z,1008.92
2023-01-20T09:47:27.660Z,1008.97
2023-01-20T09:48:26.474Z,1008.93
2023-01-20T09:49:26.449Z,1008.97
2023-01-20T09:50:26.448Z,1008.99
2023-01-20T09:51:26.431Z,1008.96
2023-01-20T09:52:26.418Z,1008.99
2023-01-20T09:53:26.408Z,1009.02
2023-01-20T09:54:26.414Z,1008.97
2023-01-20T09:55:26.404Z,1009.01
2023-01-20T09:56:26.369Z,1008.95
2023-01-20T09:57:26.364Z,1008.98
2023-01-20T09:58:26.423Z,1008.98
2023-01-20T09:59:26.341Z,1009.01
2023-01-20T10:00:26.320Z,1009.00
2023-01-20T10:01:26.314Z,1009.01
2023-01-20T10:02:26.314Z,1009.03
2023-01-20T10:03:26.313Z,1008.96
2023-01-20T10:04:26.295Z,1008.95
2023-01-20T10:05:26.294Z,1008.98
2023-01-20T10:06:26.261Z,1008.93
2023-01-20T10:07:26.252Z,1008.90
2023-01-20T10:08:26.252Z,1008.94
2023-01-20T10:09:26.229Z,1008.94
2023-01-20T10:10:26.231Z,1008.97
2023-01-20T10:11:26.262Z,1008.94
2023-01-20T10:12:26.205Z,1008.91
2023-01-20T10:13:26.210Z,1008.91
2023-01-20T10:14:26.181Z,1008.99
2023-01-20T10:15:26.162Z,1009.02
2023-01-20T10:16:26.193Z,1009.03
2023-01-20T10:17:26.142Z,1009.05
2023-01-20T10:18:26.135Z,1009.09
2023-01-20T10:19:26.118Z,1009.02
2023-01-20T10:20:28.001Z,1008.99
2023-01-20T10:21:26.093Z,1008.95
2023-01-20T10:22:26.095Z,1008.97
2023-01-20T10:23:26.092Z,1008.90
2023-01-20T10:24:26.091Z,1008.92
2023-01-20T10:25:26.051Z,1008.93
2023-01-20T10:26:26.050Z,1008.97
2023-01-20T10:27:26.031Z,1008.95
2023-01-20T10:28:26.033Z,1009.00
2023-01-20T10:29:26.024Z,1008.98
2023-01-20T10:30:26.078Z,1009.03
2023-01-20T10:31:26.028Z,1009.03
2023-01-20T10:32:25.978Z,1008.95
2023-01-20T10:33:25.986Z,1008.99
2023-01-20T10:34:26.001Z,1008.98
2023-01-20T10:35:25.955Z,1008.98
2023-01-20T10:36:25.984Z,1008.98
2023-01-20T10:37:25.932Z,1008.92
2023-01-20T10:38:25.932Z,1008.98
2023-01-20T10:39:25.904Z,1008.95
2023-01-20T10:40:25.958Z,1008.97
2023-01-20T10:41:25.918Z,1008.94
2023-01-20T10:42:25.891Z,1008.88
2023-01-20T10:43:25.896Z,1008.84
2023-01-20T10:44:25.882Z,1008.87
2023-01-20T10:45:25.833Z,1008.79
2023-01-20T10:46:25.906Z,1008.83
2023-01-20T10:47:25.839Z,1008.74
2023-01-20T10:48:25.845Z,1008.73
2023-01-20T10:49:25.793Z,1008.73
2023-01-20T10:50:25.806Z,1008.72
2023-01-20T10:51:25.774Z,1008.72
2023-01-20T10:52:25.760Z,1008.74
2023-01-20T10:53:25.767Z,1008.71
2023-01-20T10:54:25.733Z,1008.76
2023-01-20T10:55:25.737Z,1008.77
2023-01-20T10:56:25.714Z,1008.80
2023-01-20T10:57:25.711Z,1008.76
2023-01-20T10:58:25.724Z,1008.80
2023-01-20T10:59:25.688Z,1008.81
2023-01-20T11:00:25.667Z,1008.83
2023-01-20T11:01:25.677Z,1008.84
2023-01-20T11:02:25.707Z,1008.80
2023-01-20T11:03:25.654Z,1008.82
2023-01-20T11:04:25.630Z,1008.84
2023-01-20T11:05:25.616Z,1008.81
2023-01-20T11:06:25.619Z,1008.84
2023-01-20T11:07:25.603Z,1008.80
2023-01-20T11:08:25.627Z,1008.82
2023-01-20T11:09:25.578Z,1008.82
2023-01-20T11:10:25.577Z,1008.82
2023-01-20T11:11:25.563Z,1008.88
2023-01-20T11:12:25.606Z,1008.83
2023-01-20T11:13:25.545Z,1008.81
2023-01-20T11:14:26.252Z,1008.82
2023-01-20T11:15:25.509Z,1008.80
2023-01-20T11:16:25.573Z,1008.84
2023-01-20T11:17:25.498Z,1008.81
2023-01-20T11:18:25.489Z,1008.79
2023-01-20T11:19:25.467Z,1008.85
2023-01-20T11:20:25.459Z,1008.87
2023-01-20T11:21:25.437Z,1008.87
2023-01-20T11:22:25.439Z,1008.85
2023-01-20T11:23:25.430Z,1008.85
2023-01-20T11:24:25.411Z,1008.88
2023-01-20T11:25:25.401Z,1008.87
2023-01-20T11:26:28.007Z,1008.88
2023-01-20T11:27:25.393Z,1008.88
2023-01-20T11:28:25.384Z,1008.86
2023-01-20T11:29:25.362Z,1008.88
2023-01-20T11:30:25.344Z,1008.86
2023-01-20T11:31:25.342Z,1008.92
2023-01-20T11:32:25.389Z,1008.88
2023-01-20T11:33:25.403Z,1008.86
2023-01-20T11:34:25.300Z,1008.89
2023-01-20T11:35:25.327Z,1008.87
2023-01-20T11:36:25.288Z,1008.84
2023-01-20T11:37:25.271Z,1008.88
2023-01-20T11:38:25.279Z,1008.86
2023-01-20T11:39:25.263Z,1008.85
2023-01-20T11:40:25.242Z,1008.85
2023-01-20T11:41:25.227Z,1008.89
2023-01-20T11:42:25.261Z,1008.89
2023-01-20T11:43:25.218Z,1008.87
2023-01-20T11:44:25.201Z,1008.85
2023-01-20T11:45:25.182Z,1008.86
2023-01-20T11:46:25.250Z,1008.84
2023-01-20T11:47:25.162Z,1008.82
2023-01-20T11:48:25.159Z,1008.83
2023-01-20T11:49:25.139Z,1008.87
2023-01-20T11:50:25.134Z,1008.84
2023-01-20T11:51:25.203Z,1008.84
2023-01-20T11:52:25.138Z,1008.83
2023-01-20T11:53:25.126Z,1008.79
2023-01-20T11:54:25.093Z,1008.84
2023-01-20T11:55:25.084Z,1008.87
2023-01-20T11:56:25.067Z,1008.83
2023-01-20T11:57:25.042Z,1008.82
2023-01-20T11:58:25.063Z,1008.85
2023-01-20T11:59:25.025Z,1008.79
2023-01-20T12:00:25.026Z,1008.85
2023-01-20T12:01:25.010Z,1008.80
2023-01-20T12:02:25.004Z,1008.80
2023-01-20T12:03:24.994Z,1008.77
2023-01-20T12:04:25.029Z,1008.79
2023-01-20T12:05:24.987Z,1008.77